Stations météo

Publicité
Salsburgh, Grande-Bretagne (99024): Température de l'air & dewpoint: 16.08.2018 00:00:00 - 22.08.2018 00:00:00 (BST)Salsburgh, Grande-Bretagne (99024): Vitesse du vent & gusts: 16.08.2018 00:00:00 - 22.08.2018 00:00:00 (BST)Salsburgh, Grande-Bretagne (99024): Direction du vent: 16.08.2018 00:00:00 - 22.08.2018 00:00:00 (BST)Salsburgh, Grande-Bretagne (99024): Quantités de précipitations: 16.08.2018 00:00:00 - 22.08.2018 00:00:00 (BST)
Date & Time tt [°C] td [°C] ff [km/h] ff [knt] fx [km/h] fx [knt] dd rr [mm]
22.08.2018 00:00:00 15,6 14,4 34 18 50 27 S 0,0
21.08.2018 23:00:00 15,6 14,3 26 14 - - S 0,0
21.08.2018 22:00:00 15,3 13,9 24 13 - - S 0,0
21.08.2018 21:00:00 15,2 14,1 22 12 - - S 0,0
21.08.2018 20:00:00 15,2 14,2 24 13 - - S 0,0
21.08.2018 19:00:00 15,6 14,6 29 16 - - SSW 0,0
21.08.2018 18:00:00 15,4 14,9 26 14 - - SSW 0,2
21.08.2018 17:00:00 16,6 14,2 29 16 - - S 0,0
21.08.2018 16:00:00 17,8 13,7 31 17 - - S 0,0
21.08.2018 15:00:00 18,0 14,0 29 16 - - S 0,0
21.08.2018 14:00:00 17,3 14,8 24 13 - - S 0,0
21.08.2018 13:00:00 18,1 15,4 22 12 - - S 0,0
21.08.2018 12:00:00 16,8 15,1 16 9 - - S 0,0
21.08.2018 11:00:00 15,8 15,0 15 8 - - S 0,0
21.08.2018 10:00:00 15,5 15,4 9 5 - - S 0,0
21.08.2018 09:00:00 14,5 14,3 9 5 - - SSE 0,0
21.08.2018 08:00:00 13,3 13,3 11 6 - - E 0,0
21.08.2018 07:00:00 12,9 12,9 11 6 - - E 0,0
21.08.2018 06:00:00 12,7 12,7 11 6 - - E 0,2
21.08.2018 05:00:00 12,7 12,7 11 6 - - E 0,0
21.08.2018 04:00:00 12,7 12,7 13 7 - - ENE 0,0
21.08.2018 03:00:00 13,0 13,0 9 5 - - ENE 0,0
21.08.2018 02:00:00 13,2 13,1 8 4 - - E 0,0
21.08.2018 01:00:00 13,6 13,0 2 1 - - ENE 0,0
21.08.2018 00:00:00 13,9 12,9 8 4 - - E 0,0
20.08.2018 23:00:00 14,1 12,9 5 3 - - E 0,0
20.08.2018 22:00:00 14,6 11,6 4 2 - - ENE 0,0
20.08.2018 21:00:00 14,4 12,9 4 2 - - SE 0,0
20.08.2018 20:00:00 14,6 13,0 5 3 - - SSE 0,0
20.08.2018 19:00:00 14,7 12,8 9 5 - - SSE 0,0
20.08.2018 18:00:00 15,3 12,0 4 2 - - SW 0,0
20.08.2018 17:00:00 15,6 11,8 5 3 - - S 0,0
20.08.2018 16:00:00 15,5 10,6 4 2 - - WSW 0,0
20.08.2018 15:00:00 16,1 9,1 5 3 - - WNW 0,0
20.08.2018 14:00:00 15,2 10,1 8 4 - - W 0,0
20.08.2018 13:00:00 15,5 10,1 8 4 - - WSW 0,0
20.08.2018 12:00:00 14,8 10,1 8 4 - - WSW 0,0
20.08.2018 11:00:00 13,4 11,4 5 3 - - W 0,0
20.08.2018 10:00:00 11,9 11,6 8 4 - - SW 0,0
20.08.2018 09:00:00 10,6 10,6 8 4 - - SSW 0,0
20.08.2018 08:00:00 10,1 10,1 11 6 - - S 0,0
20.08.2018 07:00:00 9,8 9,8 8 4 - - S 0,0
20.08.2018 06:00:00 9,8 9,8 4 2 - - S 0,0
20.08.2018 05:00:00 9,7 9,7 5 3 - - SSE 0,0
20.08.2018 04:00:00 9,9 9,8 4 2 - - WSW 0,0
20.08.2018 03:00:00 9,9 9,9 5 3 - - SW 0,0
20.08.2018 02:00:00 9,5 9,4 5 3 - - SSE 0,0
20.08.2018 01:00:00 9,7 9,5 5 3 - - S 0,0
20.08.2018 00:00:00 9,7 9,3 5 3 - - S 0,0
19.08.2018 23:00:00 10,2 9,4 8 4 - - SSW 0,0
19.08.2018 22:00:00 11,3 9,9 8 4 - - SW 0,0
19.08.2018 21:00:00 12,7 11,2 9 5 - - WSW 0,0
19.08.2018 20:00:00 13,7 11,0 15 8 - - WSW 0,0
19.08.2018 19:00:00 15,0 12,9 16 9 - - W 0,0
19.08.2018 18:00:00 15,4 14,4 16 9 - - W 0,8
19.08.2018 17:00:00 15,9 14,2 13 7 - - S 0,0
19.08.2018 16:00:00 15,7 13,9 8 4 - - SSW 0,0
19.08.2018 15:00:00 16,2 13,7 5 3 - - S 0,0
19.08.2018 14:00:00 15,3 13,6 2 1 - - ENE 0,0
19.08.2018 13:00:00 14,6 13,5 8 4 - - NNE 0,0
19.08.2018 12:00:00 13,9 13,1 15 8 - - NNE 0,0
19.08.2018 11:00:00 13,0 13,0 22 12 - - NNE 0,0
19.08.2018 10:00:00 12,5 12,5 21 11 - - NNE 0,2
19.08.2018 09:00:00 13,0 13,0 22 12 - - NE 0,2
19.08.2018 08:00:00 13,4 13,4 21 11 - - NNE 0,8
19.08.2018 07:00:00 13,6 13,6 16 9 - - NE 0,8
19.08.2018 06:00:00 13,7 13,7 16 9 - - ENE 0,8
19.08.2018 05:00:00 13,9 13,9 15 8 - - ENE 1,0
19.08.2018 04:00:00 13,9 13,9 16 9 - - E 1,4
19.08.2018 03:00:00 14,2 14,2 16 9 - - E 2,2
19.08.2018 02:00:00 14,5 14,5 11 6 - - ESE 1,4
19.08.2018 01:00:00 14,6 14,6 13 7 - - SSE 1,2
19.08.2018 00:00:00 14,0 14,0 9 5 - - S 0,2
18.08.2018 23:00:00 13,7 13,7 9 5 - - S 0,0
18.08.2018 22:00:00 13,6 13,6 11 6 - - SSW 0,0
18.08.2018 21:00:00 13,5 13,5 16 9 - - SSW 0,0
18.08.2018 20:00:00 13,5 13,5 16 9 - - SW 0,2
18.08.2018 19:00:00 13,5 13,5 18 10 - - SW 0,0
18.08.2018 18:00:00 13,4 13,4 21 11 - - SW 0,2
18.08.2018 17:00:00 13,2 13,2 15 8 - - WSW 0,2
18.08.2018 16:00:00 13,2 13,2 22 12 - - W 0,6
18.08.2018 15:00:00 13,4 13,4 21 11 - - WSW 0,2
18.08.2018 14:00:00 12,7 12,7 21 11 - - SW 0,2
18.08.2018 13:00:00 12,1 12,1 26 14 - - WSW 0,0
18.08.2018 12:00:00 11,9 11,9 28 15 - - WSW 0,2
18.08.2018 11:00:00 12,2 11,0 28 15 46 25 WSW 0,0
18.08.2018 10:00:00 12,0 12,0 31 17 54 29 WSW 0,6
18.08.2018 09:00:00 12,0 12,0 29 16 48 26 WSW 1,4
18.08.2018 08:00:00 13,0 13,0 34 18 - - SW 3,0
18.08.2018 07:00:00 12,9 12,9 34 18 54 29 SW 1,0
18.08.2018 06:00:00 12,9 12,9 34 18 54 29 SW 0,2
18.08.2018 05:00:00 13,0 13,0 31 17 50 27 SSW 0,4
18.08.2018 04:00:00 12,7 12,7 22 12 46 25 SW 2,2
18.08.2018 03:00:00 13,1 11,8 34 18 54 29 SW 0,0
18.08.2018 02:00:00 13,0 11,6 35 19 57 31 WSW 0,0
18.08.2018 01:00:00 13,2 12,3 35 19 55 30 SW 0,0
18.08.2018 00:00:00 13,0 12,7 28 15 46 25 WSW 0,0
17.08.2018 23:00:00 12,9 12,5 29 16 46 25 WSW 0,0
17.08.2018 22:00:00 13,1 12,8 34 18 55 30 WSW 0,0
17.08.2018 21:00:00 13,5 12,9 42 23 59 32 WSW 0,0
17.08.2018 20:00:00 13,6 13,3 35 19 57 31 SW 0,0
17.08.2018 19:00:00 13,7 13,2 39 21 57 31 SW 0,0
17.08.2018 18:00:00 13,6 13,0 42 23 59 32 SSW 0,0
17.08.2018 17:00:00 13,1 12,8 37 20 50 27 SSW 0,0
17.08.2018 16:00:00 12,6 12,4 35 19 52 28 SSW 0,0
17.08.2018 15:00:00 12,3 11,7 37 20 52 28 SSW 0,0
17.08.2018 14:00:00 11,9 11,5 37 20 54 29 SSW 0,2
17.08.2018 13:00:00 11,9 10,4 35 19 55 30 SSW 0,0
17.08.2018 12:00:00 10,8 10,2 31 17 50 27 S 0,0
17.08.2018 11:00:00 11,6 9,4 31 17 48 26 SSW 0,0
17.08.2018 10:00:00 11,0 10,0 28 15 - - SSW 0,0
17.08.2018 09:00:00 10,8 10,0 21 11 - - SSW 0,0
17.08.2018 08:00:00 10,4 9,7 21 11 - - SW 0,0
17.08.2018 07:00:00 10,2 10,0 26 14 - - SW 0,0
17.08.2018 06:00:00 10,1 9,7 26 14 - - SW 0,0
17.08.2018 05:00:00 10,1 9,9 26 14 - - SW 0,0
17.08.2018 04:00:00 10,5 10,0 26 14 - - SW 0,2
17.08.2018 03:00:00 10,6 9,9 26 14 - - SW 0,0
17.08.2018 02:00:00 10,6 9,8 28 15 - - SW 0,0
17.08.2018 01:00:00 10,7 9,7 24 13 - - SSW 0,0
17.08.2018 00:00:00 10,8 9,6 26 14 - - SW 0,0
16.08.2018 23:00:00 10,3 9,4 22 12 - - WSW 0,0
16.08.2018 22:00:00 10,3 9,8 26 14 48 26 WSW 0,0
16.08.2018 21:00:00 11,1 10,1 21 11 - - SW 0,2
16.08.2018 20:00:00 11,3 10,6 22 12 - - WSW 0,0
16.08.2018 19:00:00 12,4 10,3 21 11 - - WSW 0,4
16.08.2018 18:00:00 13,1 9,6 26 14 - - W 0,0
16.08.2018 17:00:00 12,8 10,1 31 17 46 25 WSW 0,0
16.08.2018 16:00:00 13,7 9,2 35 19 48 26 SW 0,0
16.08.2018 15:00:00 14,7 9,4 28 15 50 27 WSW 0,0
16.08.2018 14:00:00 13,7 9,0 34 18 52 28 SW 0,0
16.08.2018 13:00:00 13,0 9,4 31 17 - - SW 0,0
16.08.2018 12:00:00 12,0 10,2 29 16 - - SSW 0,0
16.08.2018 11:00:00 10,6 9,9 28 15 - - SW 0,6
16.08.2018 10:00:00 11,7 9,9 26 14 - - SSW 0,0
16.08.2018 09:00:00 10,8 9,8 18 10 - - SSW 0,2
16.08.2018 08:00:00 10,2 9,8 22 12 - - SSW 0,0
16.08.2018 07:00:00 9,5 9,3 22 12 - - SSW 0,0
16.08.2018 06:00:00 8,8 8,4 16 9 - - SSW 0,0
16.08.2018 05:00:00 9,4 9,0 16 9 - - SW 0,0
16.08.2018 04:00:00 10,0 9,8 16 9 - - WSW 0,0
16.08.2018 03:00:00 10,4 10,0 26 14 - - SW 0,0
16.08.2018 02:00:00 11,5 11,2 26 14 - - SW 0,8
16.08.2018 01:00:00 12,3 10,9 26 14 - - SW 0,0
16.08.2018 00:00:00 13,4 10,9 29 16 46 25 SSW 0,0

tt = Température de l'air
td = dewpoint
ff = Vitesse du vent
fx = gusts
dd = Direction du vent
rr = Quantités de précipitations

stations d'obs. à proximité